Meacham, Canada
Current Conditions -  °F | °C
As of 12:00 AM on Sunday 21 Dec 2014 (Local Time) from CYXE Reporting Station
Haze Haze  
Wind Chill: 15°   Ceiling: 300
Heat Index: 21°   Visibility: 1mi
Dew Point: 21°   Wind: 5mph
Humidity: 100%   Direction: 160°SSE
Pressure: 29.61"   Gusts: NA
Location:  52.1°N, 105.75°W
Report Text: CYXE 210600Z 16004KT 1SM R09/P6000FT/D BR VV003 M06/M06 A2961 RMK FG8 SLP060
Loading
Personal Weather Stations






























Interactive Weather Map New forecast layout! Learn more

10-Day Weather Forecast

Advertisements
Track Severe Weather on mobile